^^
Grace C. Lehan Memorial Weather Station Historical Data
Daily Summary for September 26, 2021 Units:  Metric    English   Both
Daily Weekly Monthly Yearly
  High: Low: Average:
Temperature: 15.6 °C 9.8 °C 12.1 °C
Dew Point: 15.1 °C 9.2 °C 11.6 °C
Humidity: 99.5% 96% 97%
Wind Speed: 5.6km/h 0km/h 1.3km/h
Wind Gust: 25.7km/h - -
Wind- - SE
Pressure: 1009.7 hPa 995.5 hPa -
Precipitation: 51.31 mm    
 
 
Tabular Data for September 26, 2021
Time Temperature Dew Point Pressure Wind Wind Speed Wind Gust Humidity Rainfall Rate (Hourly) solar
00:00 10.2 °C 9.6 °C 1009.7 hPa NW 4.8 km/h 16.1 km/h 96% 0.51 mm 0 W/m2
00:09 10.2 °C 9.6 °C 1009.7 hPa North 1.3 km/h 4.8 km/h 96% 0.51 mm 0 W/m2
00:14 10.2 °C 9.6 °C 1009.7 hPa North 1 km/h 8 km/h 96% 0.51 mm 0 W/m2
00:19 10.1 °C 9.5 °C 1009.7 hPa North 0.6 km/h 9.7 km/h 96% 0.51 mm 0 W/m2
00:24 10.1 °C 9.4 °C 1009.7 hPa NW 0.2 km/h 9.7 km/h 96% 0.51 mm 0 W/m2
00:29 10.1 °C 9.4 °C 1009.7 hPa North 1 km/h 14.5 km/h 96% 0.51 mm 0 W/m2
00:34 10.1 °C 9.4 °C 1009.7 hPa Calm   14.5 km/h 96% 0.51 mm 0 W/m2
00:39 10.1 °C 9.4 °C 1009.7 hPa SSE 0.2 km/h 3.2 km/h 96% 0.51 mm 0 W/m2
00:44 10 °C 9.4 °C 1009.7 hPa NE 0.5 km/h 3.2 km/h 96% 0.76 mm 0 W/m2
00:49 10 °C 9.4 °C 1009.4 hPa East 1.6 km/h 8 km/h 96% 0.76 mm 0 W/m2
00:54 10 °C 9.4 °C 1009 hPa NE 2.1 km/h 16.1 km/h 96% 0.76 mm 0 W/m2
00:59 10 °C 9.4 °C 1009.4 hPa NE 0.8 km/h 16.1 km/h 96% 0.76 mm 0 W/m2
01:04 9.9 °C 9.4 °C 1009.4 hPa NE 0.3 km/h 16.1 km/h 96% 0.76 mm 0 W/m2
01:09 10 °C 9.4 °C 1009.4 hPa NW 0.5 km/h 4.8 km/h 96% 0.76 mm 0 W/m2
01:14 10.1 °C 9.4 °C 1009.4 hPa North 0.8 km/h 9.7 km/h 96% 0.76 mm 0 W/m2
01:19 10.1 °C 9.4 °C 1009 hPa North 0.2 km/h 9.7 km/h 96% 0.76 mm 0 W/m2
01:24 10.1 °C 9.4 °C 1008.7 hPa Calm   9.7 km/h 96% 1.02 mm 0 W/m2
01:29 10.1 °C 9.4 °C 1008.7 hPa NNE 0.2 km/h 9.7 km/h 96% 1.27 mm 0 W/m2
01:34 10 °C 9.4 °C 1008.4 hPa NNE 0.3 km/h 9.7 km/h 96% 1.52 mm 0 W/m2
01:39 10 °C 9.4 °C 1008.4 hPa NNW 0.3 km/h 8 km/h 96% 1.52 mm 0 W/m2
01:44 10 °C 9.4 °C 1008 hPa NW 0.5 km/h 8 km/h 96% 1.78 mm 0 W/m2
01:49 9.9 °C 9.3 °C 1008 hPa NE 0.8 km/h 8 km/h 96% 1.78 mm 0 W/m2
01:54 9.9 °C 9.3 °C 1008 hPa NNE 0.5 km/h 8 km/h 96% 2.54 mm 0 W/m2
01:59 9.9 °C 9.3 °C 1007.7 hPa East 0.2 km/h 8 km/h 96% 3.05 mm 0 W/m2
02:04 9.9 °C 9.3 °C 1007.3 hPa NE 0.5 km/h 8 km/h 96% 3.05 mm 0 W/m2
02:09 9.9 °C 9.3 °C 1007.3 hPa NNW 0.5 km/h 9.7 km/h 96% 3.3 mm 0 W/m2
02:14 9.9 °C 9.3 °C 1007.3 hPa ENE 0.3 km/h 9.7 km/h 96% 3.56 mm 0 W/m2
02:19 9.9 °C 9.3 °C 1007.3 hPa North 1.1 km/h 9.7 km/h 96% 3.56 mm 0 W/m2
02:24 9.9 °C 9.3 °C 1007.3 hPa North 1 km/h 20.9 km/h 96% 3.81 mm 0 W/m2
02:29 9.9 °C 9.3 °C 1007.3 hPa NNW 0.6 km/h 20.9 km/h 96% 3.81 mm 0 W/m2
02:34 9.9 °C 9.3 °C 1007 hPa NW 1.1 km/h 20.9 km/h 96% 3.81 mm 0 W/m2
02:39 9.9 °C 9.3 °C 1006.7 hPa NNW 1.4 km/h 11.3 km/h 96% 3.56 mm 0 W/m2
02:44 9.9 °C 9.3 °C 1006.7 hPa North 1.4 km/h 17.7 km/h 96% 3.81 mm 0 W/m2
02:49 9.9 °C 9.3 °C 1006.3 hPa NNW 3.2 km/h 19.3 km/h 96% 4.32 mm 0 W/m2
02:54 9.8 °C 9.2 °C 1006.3 hPa NE 2.1 km/h 19.3 km/h 96% 4.57 mm 0 W/m2
02:59 9.8 °C 9.2 °C 1006.3 hPa ENE 0.5 km/h 19.3 km/h 96% 5.08 mm 0 W/m2
03:04 9.8 °C 9.2 °C 1006.3 hPa NNW 0.8 km/h 19.3 km/h 96% 5.08 mm 0 W/m2
03:09 9.8 °C 9.2 °C 1006 hPa NNW 0.8 km/h 6.4 km/h 96% 4.83 mm 0 W/m2
03:14 9.8 °C 9.2 °C 1006 hPa North 1.1 km/h 11.3 km/h 96% 5.59 mm 0 W/m2
03:19 9.8 °C 9.2 °C 1006 hPa ENE 0.8 km/h 11.3 km/h 96% 6.86 mm 0 W/m2
03:24 9.8 °C 9.2 °C 1005.6 hPa ENE 0.8 km/h 11.3 km/h 96% 7.87 mm 0 W/m2
03:29 9.8 °C 9.2 °C 1005.6 hPa NE 0.3 km/h 11.3 km/h 96% 8.89 mm 0 W/m2
03:34 9.9 °C 9.3 °C 1005.3 hPa North 1 km/h 14.5 km/h 96% 8.89 mm 0 W/m2
03:39 9.9 °C 9.3 °C 1005.3 hPa North 0.2 km/h 8 km/h 96% 8.89 mm 0 W/m2
03:44 9.9 °C 9.3 °C 1005.3 hPa North 1 km/h 9.7 km/h 96% 8.89 mm 0 W/m2
03:49 9.9 °C 9.3 °C 1005.3 hPa North 1 km/h 9.7 km/h 96% 10.16 mm 0 W/m2
03:54 9.9 °C 9.3 °C 1005.3 hPa North 0.2 km/h 9.7 km/h 96% 10.16 mm 0 W/m2
03:59 9.9 °C 9.3 °C 1005 hPa NNW 0.2 km/h 9.7 km/h 96% 10.41 mm 0 W/m2
04:00 9.9 °C 9.3 °C 1004.6 hPa Calm   9.7 km/h 96% 10.41 mm 0 W/m2
04:09 9.9 °C 9.3 °C 1005 hPa NE 0.5 km/h 8 km/h 96% 8.89 mm 0 W/m2
04:14 9.9 °C 9.3 °C 1004.6 hPa ENE 1.8 km/h 17.7 km/h 96% 10.67 mm 0 W/m2
04:19 9.9 °C 9.3 °C 1004.6 hPa East 0.8 km/h 17.7 km/h 96% 10.92 mm 0 W/m2
04:24 9.9 °C 9.3 °C 1004.6 hPa ENE 0.5 km/h 17.7 km/h 96% 10.92 mm 0 W/m2
04:29 9.9 °C 9.3 °C 1004.6 hPa NW 0.3 km/h 17.7 km/h 96% 11.18 mm 0 W/m2
04:34 9.9 °C 9.3 °C 1004.6 hPa North 0.3 km/h 17.7 km/h 96% 11.18 mm 0 W/m2
04:39 10 °C 9.4 °C 1004.6 hPa NE 0.2 km/h 3.2 km/h 96% 5.59 mm 0 W/m2
04:44 10 °C 9.9 °C 1004.6 hPa NNE 0.2 km/h 3.2 km/h 99.5% 5.59 mm 0 W/m2
04:49 10 °C 9.6 °C 1004.6 hPa NNE 1 km/h 9.7 km/h 97.5% 5.59 mm 0 W/m2
04:54 10 °C 9.8 °C 1004.3 hPa WNW 0.6 km/h 9.7 km/h 98.4% 5.59 mm 0 W/m2
04:59 10 °C 9.7 °C 1004.3 hPa North 1.1 km/h 17.7 km/h 98.2% 5.59 mm 0 W/m2
05:04 10 °C 9.4 °C 1004.3 hPa North 0.8 km/h 17.7 km/h 96% 5.59 mm 0 W/m2
05:09 9.9 °C 9.3 °C 1003.9 hPa NNW 1.9 km/h 16.1 km/h 96% 3.05 mm 0 W/m2
05:14 9.9 °C 9.3 °C 1003.9 hPa North 1 km/h 16.1 km/h 96% 3.05 mm 0 W/m2
05:19 9.9 °C 9.3 °C 1003.9 hPa North 0.6 km/h 16.1 km/h 96% 3.05 mm 0 W/m2
05:24 9.9 °C 9.3 °C 1003.6 hPa NNE 0.8 km/h 16.1 km/h 96% 3.05 mm 0 W/m2
05:29 9.9 °C 9.3 °C 1003.6 hPa North 0.8 km/h 17.7 km/h 96% 3.3 mm 0 W/m2
05:34 9.9 °C 9.3 °C 1003.6 hPa North 0.5 km/h 17.7 km/h 96% 3.3 mm 0 W/m2
05:39 9.9 °C 9.3 °C 1003.3 hPa NNE 0.5 km/h 9.7 km/h 96% 0.25 mm 0 W/m2
05:44 9.9 °C 9.4 °C 1002.9 hPa NNW 0.8 km/h 14.5 km/h 96.1% 0.51 mm 0 W/m2
05:49 10 °C 9.5 °C 1003.3 hPa NNE 1.1 km/h 14.5 km/h 96.7% 0.51 mm 0 W/m2
05:54 10 °C 9.8 °C 1002.9 hPa NNW 0.5 km/h 14.5 km/h 99% 0.51 mm 0 W/m2
05:59 10.1 °C 9.6 °C 1002.9 hPa NW 0.5 km/h 14.5 km/h 97% 0.51 mm 0 W/m2
06:04 10.1 °C 9.6 °C 1002.6 hPa NNW 1.8 km/h 22.5 km/h 97% 0.51 mm 0 W/m2
06:09 10.2 °C 9.7 °C 1002.6 hPa NW 1.3 km/h 22.5 km/h 97% 0.51 mm 0 W/m2
06:14 10.2 °C 9.7 °C 1002.6 hPa NW 0.5 km/h 22.5 km/h 97% 0.51 mm 0 W/m2
06:19 10.2 °C 9.8 °C 1002.6 hPa NNE 0.3 km/h 22.5 km/h 97% 0.76 mm 0 W/m2
06:24 10.2 °C 9.8 °C 1002.3 hPa North 1.1 km/h 22.5 km/h 97% 1.02 mm 0 W/m2
06:29 10.3 °C 9.8 °C 1002.3 hPa NNW 1.3 km/h 22.5 km/h 97% 1.02 mm 0 W/m2
06:34 10.3 °C 9.8 °C 1002.3 hPa NNW 1 km/h 22.5 km/h 97% 1.02 mm 0 W/m2
06:39 10.3 °C 9.9 °C 1002.3 hPa NNW 1.6 km/h 14.5 km/h 97% 1.27 mm 0 W/m2
06:44 10.4 °C 9.9 °C 1002.3 hPa NNW 0.3 km/h 14.5 km/h 97% 1.27 mm 0 W/m2
06:49 10.4 °C 9.9 °C 1002.3 hPa NNW 2.4 km/h 14.5 km/h 97% 1.27 mm 0 W/m2
06:54 10.4 °C 10 °C 1002.3 hPa NNW 1.6 km/h 14.5 km/h 97% 1.78 mm 0 W/m2
06:59 10.4 °C 10 °C 1002.3 hPa NNE 0.8 km/h 14.5 km/h 97% 1.78 mm 0 W/m2
07:04 10.5 °C 10.1 °C 1002.3 hPa NNW 1.3 km/h 19.3 km/h 97% 1.78 mm 0 W/m2
07:09 10.6 °C 10.1 °C 1002.3 hPa NW 1.1 km/h 19.3 km/h 97% 1.52 mm 0 W/m2
07:14 10.6 °C 10.1 °C 1001.9 hPa NNW 0.8 km/h 19.3 km/h 97% 1.52 mm 0 W/m2
07:19 10.6 °C 10.2 °C 1001.9 hPa NNW 1.3 km/h 19.3 km/h 97% 1.52 mm 0 W/m2
07:24 10.7 °C 10.2 °C 1001.9 hPa NW 0.6 km/h 19.3 km/h 97% 1.78 mm 0 W/m2
07:29 10.7 °C 10.2 °C 1001.6 hPa NNW 0.8 km/h 19.3 km/h 97% 2.03 mm 0 W/m2
07:34 10.7 °C 10.2 °C 1001.6 hPa North 1 km/h 19.3 km/h 97% 2.03 mm 0 W/m2
07:39 10.7 °C 10.3 °C 1001.6 hPa NW 0.8 km/h 9.7 km/h 97% 1.78 mm 0 W/m2
07:44 10.8 °C 10.3 °C 1001.6 hPa North 0.3 km/h 9.7 km/h 97% 2.03 mm 0 W/m2
07:49 10.8 °C 10.3 °C 1001.6 hPa Calm   9.7 km/h 97% 2.29 mm 0 W/m2
07:54 10.8 °C 10.4 °C 1001.6 hPa NNE 1.3 km/h 9.7 km/h 97% 2.54 mm 5 W/m2
07:59 10.9 °C 10.4 °C 1001.6 hPa North 1.4 km/h 14.5 km/h 97% 2.54 mm 5 W/m2
08:00 10.9 °C 10.5 °C 1001.2 hPa Calm   14.5 km/h 97% 2.54 mm 0 W/m2
08:09 11 °C 10.6 °C 1001.6 hPa NE 0.8 km/h 8 km/h 97% 3.56 mm 11 W/m2
08:14 11.1 °C 10.6 °C 1001.2 hPa NNW 0.8 km/h 9.7 km/h 97% 3.56 mm 9 W/m2
08:19 11.1 °C 10.7 °C 1001.2 hPa NNE 0.6 km/h 9.7 km/h 97% 3.56 mm 5 W/m2
08:24 11.2 °C 10.7 °C 1001.2 hPa NE 0.8 km/h 9.7 km/h 97% 3.56 mm 7 W/m2
08:29 11.2 °C 10.8 °C 1001.2 hPa East 0.2 km/h 9.7 km/h 97% 3.81 mm 9 W/m2
08:34 11.2 °C 10.8 °C 1001.2 hPa ENE 2.3 km/h 9.7 km/h 97% 3.81 mm 9 W/m2
08:39 11.3 °C 10.8 °C 1001.2 hPa NE 1.3 km/h 9.7 km/h 97% 2.29 mm 11 W/m2
08:44 11.3 °C 10.8 °C 1000.9 hPa ENE 1.8 km/h 9.7 km/h 97% 2.54 mm 11 W/m2
08:49 11.3 °C 10.9 °C 1000.9 hPa ENE 3.2 km/h 19.3 km/h 97% 2.54 mm 12 W/m2
08:54 11.4 °C 10.9 °C 1000.9 hPa ENE 2.6 km/h 19.3 km/h 97% 2.54 mm 21 W/m2
08:59 11.4 °C 10.9 °C 1000.9 hPa NE 1.1 km/h 19.3 km/h 97% 2.54 mm 26 W/m2
09:04 11.5 °C 11.1 °C 1000.6 hPa ENE 1.4 km/h 19.3 km/h 97% 2.54 mm 18 W/m2
09:09 11.5 °C 11.1 °C 1000.6 hPa NE 0.8 km/h 9.7 km/h 97% 0.25 mm 16 W/m2
09:14 11.6 °C 11.1 °C 1000.6 hPa North 2.9 km/h 20.9 km/h 97% 0.25 mm 12 W/m2
09:19 11.6 °C 11.2 °C 1000.6 hPa ENE 1.6 km/h 20.9 km/h 97% 0.25 mm 12 W/m2
09:24 11.6 °C 11.2 °C 1000.2 hPa ENE 1.4 km/h 20.9 km/h 97% 0.51 mm 12 W/m2
09:29 11.6 °C 11.2 °C 1000.2 hPa NNE 1 km/h 20.9 km/h 97% 0.51 mm 18 W/m2
09:34 11.6 °C 11.2 °C 999.9 hPa ENE 0.3 km/h 20.9 km/h 97% 0.51 mm 19 W/m2
09:39 11.6 °C 11.2 °C 999.9 hPa NNE 1.1 km/h 14.5 km/h 97% 0.76 mm 21 W/m2
09:44 11.6 °C 11.2 °C 999.9 hPa NE 0.6 km/h 14.5 km/h 97% 1.02 mm 25 W/m2
09:49 11.7 °C 11.2 °C 999.5 hPa NE 0.2 km/h 14.5 km/h 97% 1.02 mm 25 W/m2
09:54 11.7 °C 11.2 °C 999.5 hPa NNE 0.8 km/h 14.5 km/h 97% 1.27 mm 46 W/m2
09:59 11.7 °C 11.2 °C 999.2 hPa ENE 0.6 km/h 14.5 km/h 97% 1.27 mm 35 W/m2
10:04 11.7 °C 11.3 °C 999.2 hPa NE 1.1 km/h 14.5 km/h 97% 1.27 mm 23 W/m2
10:09 11.8 °C 11.3 °C 998.9 hPa ENE 0.5 km/h 8 km/h 97% 1.27 mm 40 W/m2
10:14 11.8 °C 11.4 °C 998.9 hPa North 1.4 km/h 9.7 km/h 97% 1.27 mm 47 W/m2
10:19 11.9 °C 11.4 °C 998.9 hPa North 1.1 km/h 9.7 km/h 97% 1.27 mm 44 W/m2
10:24 11.9 °C 11.5 °C 998.5 hPa ENE 2.1 km/h 17.7 km/h 97% 1.27 mm 60 W/m2
10:29 11.9 °C 11.5 °C 998.5 hPa NE 1.6 km/h 17.7 km/h 97% 1.27 mm 40 W/m2
10:34 11.9 °C 11.5 °C 998.5 hPa NE 2.6 km/h 22.5 km/h 97% 1.27 mm 47 W/m2
10:39 12 °C 11.6 °C 998.5 hPa ENE 3.9 km/h 22.5 km/h 97% 1.02 mm 39 W/m2
10:44 12.1 °C 11.6 °C 998.2 hPa ENE 1.4 km/h 22.5 km/h 97% 1.02 mm 32 W/m2
10:49 12.1 °C 11.6 °C 998.2 hPa NE 2.1 km/h 22.5 km/h 97% 1.27 mm 35 W/m2
10:54 12.1 °C 11.6 °C 998.2 hPa ENE 3.9 km/h 22.5 km/h 97% 1.27 mm 44 W/m2
10:59 12.2 °C 11.7 °C 998.2 hPa NE 0.6 km/h 22.5 km/h 97% 1.27 mm 39 W/m2
11:04 12.2 °C 11.7 °C 998.2 hPa NE 0.8 km/h 22.5 km/h 97% 1.27 mm 37 W/m2
11:09 12.2 °C 11.8 °C 998.2 hPa ENE 0.8 km/h 8 km/h 97% 1.02 mm 23 W/m2
11:14 12.2 °C 11.8 °C 998.2 hPa ENE 1.8 km/h 9.7 km/h 97% 1.52 mm 33 W/m2
11:19 12.2 °C 11.8 °C 998.2 hPa ENE 1.3 km/h 9.7 km/h 97% 2.29 mm 37 W/m2
11:24 12.2 °C 11.8 °C 998.2 hPa ENE 1.3 km/h 9.7 km/h 97% 3.05 mm 35 W/m2
11:29 12.3 °C 11.8 °C 998.2 hPa NE 0.8 km/h 9.7 km/h 97% 3.81 mm 65 W/m2
11:34 12.3 °C 11.8 °C 997.5 hPa ENE 1.4 km/h 11.3 km/h 97% 3.81 mm 65 W/m2
11:39 12.3 °C 11.8 °C 997.5 hPa NE 2.6 km/h 14.5 km/h 97% 4.06 mm 46 W/m2
11:44 12.3 °C 11.9 °C 997.5 hPa NE 2.3 km/h 14.5 km/h 97% 4.57 mm 46 W/m2
11:49 12.4 °C 11.9 °C 997.5 hPa ENE 2.7 km/h 16.1 km/h 97% 5.33 mm 39 W/m2
11:54 12.4 °C 12 °C 997.5 hPa ENE 4.2 km/h 17.7 km/h 97% 6.1 mm 44 W/m2
11:59 12.6 °C 12.1 °C 997.5 hPa ENE 1.9 km/h 17.7 km/h 97% 7.11 mm 42 W/m2
12:09 12.7 °C 12.2 °C 997.5 hPa ENE 1 km/h 4.8 km/h 97% 8.89 mm 42 W/m2
12:14 12.7 °C 12.2 °C 997.2 hPa ENE 0.5 km/h 4.8 km/h 97% 9.65 mm 47 W/m2
12:19 12.8 °C 12.3 °C 997.2 hPa ENE 0.3 km/h 4.8 km/h 97% 10.67 mm 47 W/m2
12:24 12.8 °C 12.4 °C 997.2 hPa Calm   4.8 km/h 97% 11.43 mm 39 W/m2
12:29 12.8 °C 12.4 °C 997.2 hPa NE 0.5 km/h 4.8 km/h 97% 12.95 mm 35 W/m2
12:34 12.9 °C 12.4 °C 996.8 hPa ENE 0.2 km/h 4.8 km/h 97% 12.95 mm 42 W/m2
12:39 12.9 °C 12.5 °C 996.8 hPa NNE 1.1 km/h 9.7 km/h 97% 11.68 mm 30 W/m2
12:44 12.9 °C 12.5 °C 996.8 hPa Calm   9.7 km/h 97% 12.19 mm 26 W/m2
12:49 13 °C 12.6 °C 996.8 hPa NE 0.2 km/h 9.7 km/h 97% 12.45 mm 26 W/m2
12:54 13 °C 12.6 °C 996.5 hPa ENE 0.2 km/h 9.7 km/h 97% 12.95 mm 42 W/m2
12:59 13.1 °C 12.6 °C 996.5 hPa ENE 0.2 km/h 9.7 km/h 97% 13.21 mm 42 W/m2
13:04 13.1 °C 12.6 °C 996.5 hPa ENE 1 km/h 9.7 km/h 97% 13.21 mm 47 W/m2
13:09 13.2 °C 12.7 °C 996.5 hPa ENE 1.1 km/h 8 km/h 97% 4.06 mm 47 W/m2
13:14 13.3 °C 12.8 °C 996.5 hPa ENE 0.6 km/h 8 km/h 97% 4.06 mm 37 W/m2
13:19 13.4 °C 12.9 °C 996.2 hPa ENE 0.2 km/h 8 km/h 97% 4.32 mm 49 W/m2
13:24 13.6 °C 13.1 °C 996.2 hPa ENE 1.1 km/h 9.7 km/h 97% 4.57 mm 46 W/m2
13:29 13.7 °C 13.2 °C 996.2 hPa ENE 1 km/h 9.7 km/h 97% 5.08 mm 51 W/m2
13:34 13.9 °C 13.4 °C 995.8 hPa ENE 3.5 km/h 14.5 km/h 97% 5.33 mm 67 W/m2
13:39 14.1 °C 13.6 °C 995.8 hPa NE 4.2 km/h 20.9 km/h 97% 5.84 mm 83 W/m2
13:44 14.3 °C 13.8 °C 995.8 hPa ENE 1.9 km/h 20.9 km/h 97% 6.1 mm 53 W/m2
13:49 14.4 °C 14 °C 995.8 hPa NE 1.9 km/h 20.9 km/h 97% 6.35 mm 37 W/m2
13:54 14.6 °C 14.1 °C 995.8 hPa NE 0.2 km/h 20.9 km/h 97% 6.86 mm 46 W/m2
13:59 14.6 °C 14.1 °C 995.8 hPa ENE 0.8 km/h 20.9 km/h 97% 7.62 mm 56 W/m2
14:04 14.5 °C 14.1 °C 995.8 hPa ENE 0.2 km/h 20.9 km/h 97% 7.62 mm 53 W/m2
14:09 14.6 °C 14.1 °C 995.8 hPa ENE 0.8 km/h 6.4 km/h 97% 4.83 mm 67 W/m2
14:14 14.7 °C 14.2 °C 995.5 hPa ENE 2.4 km/h 9.7 km/h 97% 5.08 mm 60 W/m2
14:19 14.8 °C 14.4 °C 995.5 hPa ENE 3.2 km/h 17.7 km/h 97% 5.33 mm 67 W/m2
14:24 15 °C 14.6 °C 995.5 hPa ENE 2.3 km/h 17.7 km/h 97% 5.33 mm 62 W/m2
14:29 15.2 °C 14.7 °C 995.5 hPa ENE 1.9 km/h 17.7 km/h 97% 5.59 mm 42 W/m2
14:34 15.3 °C 14.8 °C 995.8 hPa ENE 5.6 km/h 17.7 km/h 97% 5.59 mm 62 W/m2
14:39 15.4 °C 14.9 °C 995.8 hPa ENE 5.1 km/h 17.7 km/h 97% 4.83 mm 70 W/m2
14:44 15.5 °C 15 °C 995.8 hPa East 1.9 km/h 17.7 km/h 97% 4.83 mm 67 W/m2
14:49 15.5 °C 15.1 °C 995.8 hPa ENE 2.9 km/h 17.7 km/h 97% 5.08 mm 72 W/m2
14:54 15.5 °C 15.1 °C 995.8 hPa East 3.2 km/h 17.7 km/h 97% 5.08 mm 65 W/m2
14:59 15.5 °C 15.1 °C 995.8 hPa East 3.5 km/h 17.7 km/h 97% 5.08 mm 62 W/m2
15:04 15.5 °C 15.1 °C 995.8 hPa ENE 1.3 km/h 17.7 km/h 97% 5.08 mm 42 W/m2
15:09 15.5 °C 15 °C 995.8 hPa ENE 1.8 km/h 9.7 km/h 97% 2.79 mm 30 W/m2
15:14 15.4 °C 15 °C 996.2 hPa ENE 1.4 km/h 11.3 km/h 97% 3.05 mm 26 W/m2
15:19 15.4 °C 15 °C 996.2 hPa ENE 3.7 km/h 17.7 km/h 97% 3.3 mm 30 W/m2
15:24 15.5 °C 15 °C 996.2 hPa ENE 5 km/h 17.7 km/h 97% 3.56 mm 56 W/m2
15:29 15.5 °C 15.1 °C 996.2 hPa ENE 2.9 km/h 17.7 km/h 97% 3.56 mm 51 W/m2
15:34 15.6 °C 15.1 °C 996.2 hPa ENE 1.4 km/h 17.7 km/h 97% 3.56 mm 51 W/m2
15:39 15.6 °C 15.1 °C 996.2 hPa ENE 0.5 km/h 9.7 km/h 97% 2.29 mm 51 W/m2
15:44 15.6 °C 15.1 °C 995.8 hPa NE 0.8 km/h 9.7 km/h 97% 2.29 mm 28 W/m2
15:49 15.6 °C 15.1 °C 995.8 hPa ENE 0.8 km/h 9.7 km/h 97% 2.54 mm 18 W/m2
15:54 15.6 °C 15.1 °C 995.8 hPa ENE 2.3 km/h 9.7 km/h 97% 2.54 mm 23 W/m2
15:59 15.6 °C 15.1 °C 996.2 hPa ENE 3.9 km/h 11.3 km/h 97% 2.54 mm 30 W/m2
16:00 15.6 °C 15.1 °C 996.2 hPa NE 4.8 km/h 11.3 km/h 97% 2.54 mm 25 W/m2
16:09 15.6 °C 15.1 °C 996.2 hPa ENE 3.4 km/h 16.1 km/h 97% 2.79 mm 40 W/m2
16:14 15.6 °C 15.1 °C 996.2 hPa ENE 1.6 km/h 16.1 km/h 97% 2.79 mm 37 W/m2
16:19 15.6 °C 15.1 °C 996.2 hPa ENE 0.3 km/h 16.1 km/h 97% 2.79 mm 23 W/m2
16:24 15.6 °C 15.1 °C 996.2 hPa ENE 1.8 km/h 16.1 km/h 97% 2.79 mm 19 W/m2
16:29 15.6 °C 15.1 °C 996.2 hPa East 0.8 km/h 16.1 km/h 97% 2.79 mm 18 W/m2
16:34 15.6 °C 15.1 °C 996.2 hPa ENE 1.1 km/h 16.1 km/h 97% 2.79 mm 12 W/m2
16:39 15.5 °C 15.1 °C 996.2 hPa ENE 1.4 km/h 6.4 km/h 97% 1.02 mm 12 W/m2
16:44 15.5 °C 15.1 °C 996.2 hPa NNW 0.3 km/h 8 km/h 97% 1.02 mm 9 W/m2
16:49 15.4 °C 15 °C 996.2 hPa NE 0.5 km/h 8 km/h 97% 1.02 mm 7 W/m2
16:54 15.3 °C 14.9 °C 996.2 hPa ENE 1 km/h 9.7 km/h 97% 1.02 mm 5 W/m2
16:59 15.2 °C 14.7 °C 996.2 hPa ENE 0.6 km/h 9.7 km/h 97% 1.02 mm 5 W/m2
17:04 15.1 °C 14.7 °C 996.2 hPa Calm     97% 0.25 mm 7 W/m2
17:09 15.1 °C 14.6 °C 996.2 hPa North 0.3 km/h 6.4 km/h 97% 0.51 mm 7 W/m2
17:14 15.1 °C 14.6 °C 996.2 hPa Calm   6.4 km/h 97% 0.51 mm 9 W/m2
17:19 15 °C 14.5 °C 996.5 hPa NNE 0.2 km/h 6.4 km/h 97% 0.76 mm 9 W/m2
17:24 14.9 °C 14.5 °C 996.5 hPa Calm   6.4 km/h 97% 1.02 mm 5 W/m2
17:29 14.9 °C 14.4 °C 996.5 hPa NE 0.2 km/h 6.4 km/h 97% 1.02 mm 0 W/m2
17:34 14.8 °C 14.4 °C 996.5 hPa North 1.9 km/h 11.3 km/h 97% 1.27 mm 0 W/m2
17:39 14.8 °C 14.3 °C 996.5 hPa NNW 0.5 km/h 11.3 km/h 97% 1.52 mm 0 W/m2
17:44 14.7 °C 14.2 °C 996.5 hPa NNE 0.2 km/h 11.3 km/h 97% 1.52 mm 0 W/m2
17:49 14.6 °C 14.1 °C 996.5 hPa NE 0.6 km/h 11.3 km/h 97% 1.52 mm 0 W/m2
17:54 14.4 °C 13.9 °C 996.8 hPa East 0.6 km/h 11.3 km/h 97% 1.52 mm 0 W/m2
17:59 14.3 °C 13.8 °C 996.8 hPa North 1 km/h 14.5 km/h 97% 1.78 mm 0 W/m2
18:04 14.1 °C 13.7 °C 996.8 hPa North 1.3 km/h 14.5 km/h 97% 1.78 mm 0 W/m2
18:09 14 °C 13.5 °C 996.8 hPa North 3.1 km/h 16.1 km/h 97% 1.78 mm 0 W/m2
18:14 13.8 °C 13.3 °C 996.8 hPa NNW 2.4 km/h 20.9 km/h 97% 1.78 mm 0 W/m2
18:19 13.7 °C 13.2 °C 996.8 hPa NNW 1.8 km/h 20.9 km/h 97% 1.78 mm 0 W/m2
18:24 13.6 °C 13.1 °C 996.8 hPa North 0.8 km/h 20.9 km/h 97% 1.78 mm 0 W/m2
18:29 13.4 °C 13 °C 996.8 hPa NNW 1 km/h 20.9 km/h 97% 1.78 mm 0 W/m2
18:34 13.4 °C 12.9 °C 997.2 hPa NNW 2.6 km/h 20.9 km/h 97% 1.78 mm 0 W/m2
18:39 13.3 °C 12.9 °C 997.2 hPa NE 0.5 km/h 19.3 km/h 97% 1.02 mm 0 W/m2
18:44 13.3 °C 12.8 °C 997.2 hPa NNW 1.4 km/h 19.3 km/h 97% 1.02 mm 0 W/m2
18:49 13.2 °C 12.8 °C 997.2 hPa NNW 1.1 km/h 19.3 km/h 97% 1.27 mm 0 W/m2
18:54 13.2 °C 12.7 °C 997.2 hPa North 1.6 km/h 19.3 km/h 97% 1.27 mm 0 W/m2
18:59 13.2 °C 12.7 °C 997.2 hPa West 0.5 km/h 19.3 km/h 97% 1.27 mm 0 W/m2
19:04 13.2 °C 12.7 °C 997.2 hPa NNE 1.9 km/h 19.3 km/h 97% 1.27 mm 0 W/m2
19:09 13.1 °C 12.7 °C 997.2 hPa ENE 0.8 km/h 19.3 km/h 97% 0.51 mm 0 W/m2
19:14 13.1 °C 12.6 °C 997.2 hPa SW 0.6 km/h 19.3 km/h 97% 0.51 mm 0 W/m2
19:19 13.1 °C 12.6 °C 997.2 hPa NE 1.3 km/h 19.3 km/h 97% 0.51 mm 0 W/m2
19:24 13.1 °C 12.6 °C 997.2 hPa NE 1 km/h 19.3 km/h 97% 0.51 mm 0 W/m2
19:29 13 °C 12.6 °C 997.5 hPa NNW 1.1 km/h 19.3 km/h 97% 0.51 mm 0 W/m2
19:34 12.9 °C 12.5 °C 997.5 hPa NW 0.5 km/h 19.3 km/h 97% 0.51 mm 0 W/m2
19:39 12.9 °C 12.4 °C 997.5 hPa ENE 0.8 km/h 11.3 km/h 97% 0.51 mm 0 W/m2
19:44 12.8 °C 12.4 °C 997.5 hPa NNE 1.4 km/h 19.3 km/h 97% 0.51 mm 0 W/m2
19:49 12.8 °C 12.3 °C 997.5 hPa NNE 1.1 km/h 19.3 km/h 97% 0.51 mm 0 W/m2
19:53 12.8 °C 12.3 °C 997.5 hPa NW 2.1 km/h 25.7 km/h 97% 0.51 mm 0 W/m2
Hartford County Weather
Compliments of Weather Underground - 2 mb